Airfield :
LOGIN :

Register | Disclaimer

   EN    FR    IT 

 










Legend :    VFR   Marginal VFR   IFR   Intensive IFR   Very Intensive IFR
Visi :
Ceiling :
>= 8 km
>= 3000ft
5 to 8 km
1000 to 3000 ft
1500m to 5 km
500 to 1000 ft
800 to 1500m
200 to 500 ft
< 800m
< 200 ft
Symbols :   Thunderstorms  Fog  Heavy snow  Heavy precipitations  Wind > 20 kt
SIGMETs :     Misc.  Thunderstorms  Icing  Turbulence  Mountain Waves  Volcanic Ashes







- Airport Elevation : 3 ft
- IATA code : LWR


EHLW - Leuuwarden Air Base

CURRENT METAR :
  • 160825Z AUTO 14012KT 110V170 6000 BR OVC006 M01/M02 Q1009 YLO

EXPIRED METARs :
  • 160755Z AUTO 14012KT 7000 BR BKN006 BKN007 OVC009 M01/M03 Q1009 YLO
  • 160746Z AUTO 15013KT 110V180 8000 BR OVC006 M01/M03 Q1009 YLO
  • 160725Z AUTO 15012KT 110V170 8000 BR BKN007 OVC009 M01/M03 Q1008 GRN
  • 160655Z AUTO 14013KT 100V190 9000 BR SCT007 BKN008 OVC009 M02/M03 Q1008 GRN
  • 160638Z AUTO 15012KT 9000 BR BKN007 OVC008 M02/M03 Q1009 GRN
  • 160625Z AUTO 15012KT 110V190 9000 BR SCT007 BKN008 OVC010 M02/M03 Q1009 GRN
  • 160621Z AUTO 15011KT 110V180 9000 -SN SCT007 BKN008 OVC010 M02/M03 Q1009 GRN
  • 160610Z AUTO 15013KT 5000 -SN FEW007 SCT009 OVC011 M02/M03 Q1009 GRN
  • 160556Z AUTO 14013KT 120V180 4300 -SNSG FEW007 OVC013 M02/M03 Q1009 GRN
  • 160555Z AUTO 15014KT 120V180 5000 -SG FEW008 OVC014 M02/M03 Q1009 GRN
  • 160541Z AUTO 15014KT 110V170 6000 BR FEW007 OVC014 M02/M03 Q1009 GRN
  • 160526Z AUTO 15014KT 120V180 8000 BR FEW008 BKN014 OVC017 M02/M03 Q1009 GRN

Expired Forecast.
No reported NOTAMs for that airfield.



MET'MAP, your aeronautical weather chart ! - Copyright ORBIFLY December 2007 - Disclaimer

ORBIFLY MET'MAP TEAM :

Programming & Development : Alexandra Zaïnal
Concept & Development : Baudouin d'Aumeries
Co-Development & Prog : Marc-Olivier Méhu
Technical & hardware support : Manuel Goepfert

Contact : metmap@orbifly.com




SOURCES & CREDITS :

   NOAA